Time;durP1;ratioP1;P1;durP2;ratioP2;P2;SDS_P1;SDS_P2;PMS_P1;PMS_P2;Temp;Humidity;BMP_temperature;BMP_pressure;BME280_temperature;BME280_humidity;BME280_pressure;Samples;Min_cycle;Max_cycle;Signal;HPM_P1;HPM_P2
2022/06/14 00:01:48;;;;;;;11.60;3.00;;;12.20;99.90;;;;;;5041087;28;20230;-79
2022/06/14 00:04:14;;;;;;;10.47;2.57;;;12.10;99.90;;;;;;5039174;28;20204;-76
2022/06/14 00:06:41;;;;;;;10.03;3.00;;;12.10;99.90;;;;;;5040603;28;20376;-78
2022/06/14 00:09:08;;;;;;;7.47;2.80;;;12.10;99.90;;;;;;5038062;28;20321;-79
2022/06/14 00:11:37;;;;;;;10.20;3.60;;;12.00;99.90;;;;;;5041382;28;20237;-79
2022/06/14 00:14:07;;;;;;;9.10;2.90;;;12.00;99.90;;;;;;5038811;28;20206;-78
2022/06/14 00:16:35;;;;;;;5.57;2.80;;;12.00;99.90;;;;;;5041859;28;20233;-78
2022/06/14 00:19:06;;;;;;;6.47;2.60;;;12.00;99.90;;;;;;5038289;28;20399;-79
2022/06/14 00:21:34;;;;;;;9.93;3.23;;;12.00;99.90;;;;;;5038061;28;20255;-78
2022/06/14 00:24:01;;;;;;;9.20;3.33;;;11.90;99.90;;;;;;5040819;28;20390;-78
2022/06/14 00:26:28;;;;;;;8.30;2.40;;;11.90;99.90;;;;;;5039001;28;20210;-78
2022/06/14 00:28:55;;;;;;;8.77;3.13;;;12.00;99.90;;;;;;5041081;28;20613;-79
2022/06/14 00:31:25;;;;;;;9.67;2.90;;;11.90;99.90;;;;;;5037936;28;20209;-82
2022/06/14 00:33:52;;;;;;;11.53;3.10;;;12.00;99.90;;;;;;5041141;28;20202;-80
2022/06/14 00:36:19;;;;;;;7.60;3.57;;;12.00;99.90;;;;;;5038312;28;20765;-79
2022/06/14 00:38:46;;;;;;;7.67;3.37;;;12.00;99.90;;;;;;5039965;28;20209;-77
2022/06/14 00:41:41;;;;;;;11.80;3.63;;;12.00;99.90;;;;;;5039799;28;20662;-78
2022/06/14 00:44:21;;;;;;;10.53;3.10;;;11.90;99.90;;;;;;5042405;28;20270;-79
2022/06/14 00:46:56;;;;;;;12.77;4.13;;;11.90;99.90;;;;;;5039118;28;20206;-78
2022/06/14 00:49:29;;;;;;;6.97;2.83;;;11.90;99.90;;;;;;5041817;28;20243;-78
2022/06/14 00:52:16;;;;;;;8.90;3.20;;;11.90;99.90;;;;;;5038012;28;20203;-78
2022/06/14 00:54:46;;;;;;;11.50;3.00;;;11.90;99.90;;;;;;5024961;28;20271;-78
2022/06/14 00:57:27;;;;;;;11.83;3.13;;;11.90;99.90;;;;;;5029039;28;20233;-76
2022/06/14 01:00:16;;;;;;;8.00;2.97;;;11.80;99.90;;;;;;5028218;28;20293;-77
2022/06/14 01:02:49;;;;;;;10.47;3.10;;;11.80;99.90;;;;;;5043410;28;20697;-78
2022/06/14 01:05:24;;;;;;;12.03;3.10;;;11.80;99.90;;;;;;5037951;28;20213;-78
2022/06/14 01:07:55;;;;;;;13.70;3.20;;;11.80;99.90;;;;;;5036365;28;20233;-78
2022/06/14 01:10:28;;;;;;;9.80;3.50;;;11.80;99.90;;;;;;5028302;28;20652;-77
2022/06/14 01:12:59;;;;;;;11.50;3.00;;;11.80;99.90;;;;;;5027870;28;20216;-77
2022/06/14 01:15:32;;;;;;;8.27;3.10;;;11.80;99.90;;;;;;5028734;28;20651;-78
2022/06/14 01:18:08;;;;;;;14.83;3.87;;;11.70;99.90;;;;;;5038448;28;20209;-80
2022/06/14 01:20:36;;;;;;;8.27;2.70;;;11.80;99.90;;;;;;5037961;28;20213;-78
2022/06/14 01:23:05;;;;;;;7.97;2.87;;;11.70;99.90;;;;;;5039365;28;20743;-79
2022/06/14 01:25:39;;;;;;;15.43;3.70;;;11.70;99.90;;;;;;5039702;28;21001;-77
2022/06/14 01:28:09;;;;;;;7.00;2.53;;;11.70;99.90;;;;;;5037659;28;20247;-77
2022/06/14 01:30:44;;;;;;;11.57;3.23;;;11.70;99.90;;;;;;5037104;28;20206;-79
2022/06/14 01:33:24;;;;;;;12.23;2.83;;;11.70;99.90;;;;;;5036816;28;20255;-78
2022/06/14 01:35:57;;;;;;;8.93;2.67;;;11.60;99.90;;;;;;5035374;28;20730;-78
2022/06/14 01:38:24;;;;;;;9.73;3.67;;;11.60;99.90;;;;;;5037040;28;20264;-78
2022/06/14 01:41:10;;;;;;;8.17;2.63;;;11.60;99.90;;;;;;5034911;28;20247;-79
2022/06/14 01:44:06;;;;;;;12.53;3.57;;;11.60;99.90;;;;;;5037090;28;20215;-78
2022/06/14 01:46:44;;;;;;;11.23;3.00;;;11.60;99.90;;;;;;5027467;28;20303;-79
2022/06/14 01:52:37;;;;;;;11.07;2.70;;;11.50;99.90;;;;;;5038673;28;20216;-78
2022/06/14 01:55:16;;;;;;;8.93;2.90;;;11.40;99.90;;;;;;5037768;28;20258;-79
2022/06/14 01:57:56;;;;;;;9.17;2.70;;;11.40;99.90;;;;;;5035294;28;20229;-78
2022/06/14 02:00:28;;;;;;;10.57;2.90;;;11.40;99.90;;;;;;5036017;28;20212;-77
2022/06/14 02:06:06;;;;;;;16.63;3.60;;;11.30;99.90;;;;;;5028070;28;21041;-79
2022/06/14 02:08:40;;;;;;;9.00;3.20;;;11.30;99.90;;;;;;5027352;28;20217;-79
2022/06/14 02:11:15;;;;;;;8.10;2.80;;;11.30;99.90;;;;;;5027281;28;20225;-79
2022/06/14 02:13:53;;;;;;;9.57;3.90;;;11.30;99.90;;;;;;5033883;28;20225;-80
2022/06/14 02:16:37;;;;;;;9.90;3.53;;;11.20;99.90;;;;;;5033617;28;20706;-79
2022/06/14 02:19:12;;;;;;;12.97;2.83;;;11.20;99.90;;;;;;5034119;28;20214;-80
2022/06/14 02:21:51;;;;;;;8.60;3.13;;;11.20;99.90;;;;;;5039826;28;20202;-79
2022/06/14 02:24:20;;;;;;;6.07;2.60;;;;;;;;;;5027227;28;20221;-78
2022/06/14 02:26:50;;;;;;;5.23;2.80;;;11.10;99.90;;;;;;5027688;28;20213;-79
2022/06/14 02:29:28;;;;;;;8.73;2.97;;;11.10;99.90;;;;;;5027569;28;20218;-78
2022/06/14 02:32:04;;;;;;;11.70;2.90;;;11.00;99.90;;;;;;5027431;28;20358;-79
2022/06/14 02:34:54;;;;;;;6.90;2.70;;;11.00;99.90;;;;;;5036001;28;20730;-79
2022/06/14 02:37:33;;;;;;;10.27;3.30;;;11.00;99.90;;;;;;5035225;28;20240;-78
2022/06/14 02:40:23;;;;;;;8.87;2.93;;;11.00;99.90;;;;;;5039649;28;20219;-77
2022/06/14 02:43:01;;;;;;;8.13;2.40;;;10.90;99.90;;;;;;5054195;28;20214;-76
2022/06/14 02:45:34;;;;;;;8.07;3.53;;;10.90;99.90;;;;;;5054867;28;20231;-78
2022/06/14 02:48:26;;;;;;;8.73;3.10;;;10.90;99.90;;;;;;5053816;28;20211;-77
2022/06/14 02:51:01;;;;;;;6.47;2.63;;;10.90;99.90;;;;;;5053942;28;20242;-78
2022/06/14 02:53:36;;;;;;;7.83;3.57;;;10.90;99.90;;;;;;5051237;28;20203;-75
2022/06/14 02:56:17;;;;;;;6.47;3.30;;;10.80;99.90;;;;;;5040638;28;20645;-79
2022/06/14 02:58:51;;;;;;;10.07;3.00;;;10.80;99.90;;;;;;5040577;28;20721;-78
2022/06/14 03:01:22;;;;;;;10.37;3.53;;;10.80;99.90;;;;;;5043861;28;20199;-78
2022/06/14 03:04:01;;;;;;;9.77;2.93;;;10.70;99.90;;;;;;5043906;28;20737;-79
2022/06/14 03:06:48;;;;;;;8.43;3.93;;;10.70;99.90;;;;;;5043058;28;20254;-78
2022/06/14 03:09:19;;;;;;;9.07;3.00;;;10.70;99.90;;;;;;5042459;28;20223;-77
2022/06/14 03:12:13;;;;;;;12.17;3.37;;;10.70;99.90;;;;;;5042133;28;20214;-77
2022/06/14 03:15:14;;;;;;;12.20;3.80;;;10.70;99.90;;;;;;5039548;28;20208;-77
2022/06/14 03:18:06;;;;;;;8.90;3.40;;;10.60;99.90;;;;;;5041682;28;20232;-78
2022/06/14 03:20:51;;;;;;;7.90;3.03;;;10.60;99.90;;;;;;5042161;28;20355;-79
2022/06/14 03:23:24;;;;;;;10.43;4.13;;;10.50;99.90;;;;;;5041479;28;20215;-79
2022/06/14 03:26:27;;;;;;;9.20;3.30;;;10.50;99.90;;;;;;5039908;28;20271;-78
2022/06/14 03:29:07;;;;;;;9.40;3.00;;;10.50;99.90;;;;;;5040307;28;20209;-79
2022/06/14 03:31:58;;;;;;;8.53;3.40;;;10.50;99.90;;;;;;5043680;28;20207;-77
2022/06/14 03:34:36;;;;;;;7.83;3.37;;;10.50;99.90;;;;;;5042570;28;20206;-79
2022/06/14 03:37:03;;;;;;;10.13;3.50;;;10.50;99.90;;;;;;5040748;28;20235;-77
2022/06/14 03:39:34;;;;;;;10.13;3.60;;;10.50;99.90;;;;;;5040197;28;20261;-79
2022/06/14 03:42:03;;;;;;;9.03;3.13;;;10.50;99.90;;;;;;5038765;28;20664;-78
2022/06/14 03:44:32;;;;;;;8.07;3.30;;;10.40;99.90;;;;;;5039297;28;20292;-78
2022/06/14 03:47:35;;;;;;;8.93;3.10;;;10.40;99.90;;;;;;5041100;28;20202;-78
2022/06/14 03:50:18;;;;;;;8.73;3.20;;;10.50;99.90;;;;;;5041977;28;20302;-79
2022/06/14 03:52:56;;;;;;;10.03;3.57;;;10.50;99.90;;;;;;5041014;28;20696;-79
2022/06/14 03:55:26;;;;;;;12.67;3.53;;;10.50;99.90;;;;;;5039521;28;20625;-79
2022/06/14 03:58:34;;;;;;;11.23;3.87;;;10.50;99.90;;;;;;5040700;28;20323;-79
2022/06/14 04:01:20;;;;;;;14.63;4.40;;;10.60;99.90;;;;;;5041941;28;20210;-79
2022/06/14 04:04:08;;;;;;;11.70;3.70;;;10.60;99.90;;;;;;5037032;28;20206;-80
2022/06/14 04:06:56;;;;;;;7.67;3.23;;;10.60;99.90;;;;;;5039208;28;20216;-79
2022/06/14 04:09:48;;;;;;;9.83;4.00;;;10.70;99.90;;;;;;5041629;28;20235;-80
2022/06/14 04:12:40;;;;;;;15.07;4.33;;;10.70;99.90;;;;;;5053789;28;20212;-78
2022/06/14 04:15:31;;;;;;;8.93;4.07;;;10.80;99.90;;;;;;5053432;28;20223;-78
2022/06/14 04:18:36;;;;;;;14.17;4.43;;;10.90;99.90;;;;;;5041159;28;20599;-79
2022/06/14 04:21:38;;;;;;;15.97;4.70;;;10.80;99.90;;;;;;5039776;28;20216;-79
2022/06/14 04:24:19;;;;;;;10.03;4.13;;;11.10;99.90;;;;;;5040873;28;20649;-80
2022/06/14 04:26:54;;;;;;;12.00;3.67;;;11.20;99.90;;;;;;5040964;28;20213;-79
2022/06/14 04:29:44;;;;;;;9.37;3.83;;;11.20;99.90;;;;;;5038067;28;20214;-76
2022/06/14 04:32:13;;;;;;;8.97;3.30;;;11.30;99.90;;;;;;5036309;28;20623;-79
2022/06/14 04:34:52;;;;;;;8.70;4.23;;;11.40;99.90;;;;;;5040705;28;20294;-80
2022/06/14 04:37:26;;;;;;;4.97;3.13;;;11.50;99.90;;;;;;5039135;28;20237;-77
2022/06/14 04:40:11;;;;;;;14.47;4.83;;;11.60;99.90;;;;;;5036874;28;20218;-80
2022/06/14 04:42:52;;;;;;;13.63;3.53;;;11.60;99.90;;;;;;5041256;28;20582;-78
2022/06/14 04:45:25;;;;;;;11.20;4.43;;;11.70;99.90;;;;;;5039349;28;20216;-78
2022/06/14 04:48:04;;;;;;;10.80;4.10;;;11.70;99.90;;;;;;5037509;28;20207;-78
2022/06/14 04:50:42;;;;;;;11.20;4.33;;;11.80;99.90;;;;;;5038286;28;20210;-78
2022/06/14 04:53:19;;;;;;;12.07;3.97;;;11.90;99.90;;;;;;5036134;28;20655;-79
2022/06/14 04:55:53;;;;;;;10.20;4.20;;;11.90;99.90;;;;;;5069587;28;20688;-79
2022/06/14 04:58:30;;;;;;;11.37;3.33;;;12.00;99.90;;;;;;5039273;28;20248;-79
2022/06/14 05:01:07;;;;;;;8.63;3.63;;;12.10;99.90;;;;;;5040543;28;20673;-79
2022/06/14 05:03:41;;;;;;;8.47;3.83;;;12.20;99.90;;;;;;5036753;28;20285;-80
2022/06/14 05:06:13;;;;;;;8.70;4.23;;;12.20;99.90;;;;;;5038392;28;20613;-82
2022/06/14 05:09:07;;;;;;;11.00;3.67;;;12.30;99.90;;;;;;5040292;28;20204;-80
2022/06/14 05:11:36;;;;;;;9.93;3.63;;;12.40;99.90;;;;;;5040110;28;20211;-80
2022/06/14 05:14:25;;;;;;;11.30;3.83;;;12.50;99.90;;;;;;5036153;28;20277;-79
2022/06/14 05:16:58;;;;;;;7.17;3.50;;;12.60;99.90;;;;;;5036017;28;20301;-79
2022/06/14 05:19:42;;;;;;;11.33;3.67;;;12.80;99.90;;;;;;5038739;28;20216;-78
2022/06/14 05:22:26;;;;;;;7.93;2.80;;;12.90;99.90;;;;;;5037455;28;20228;-79
2022/06/14 05:24:53;;;;;;;8.83;4.33;;;;;;;;;;5036319;28;20588;-77
2022/06/14 05:27:39;;;;;;;6.13;2.60;;;13.70;99.90;;;;;;5038919;28;20224;-78
2022/06/14 05:30:06;;;;;;;8.37;2.60;;;14.60;99.90;;;;;;5036577;28;20215;-79
2022/06/14 05:32:40;;;;;;;10.07;2.77;;;15.50;99.90;;;;;;5038788;28;20282;-77
2022/06/14 05:35:34;;;;;;;7.70;2.33;;;16.70;99.90;;;;;;5071139;28;20206;-79
2022/06/14 05:38:25;;;;;;;6.35;2.30;;;17.90;99.90;;;;;;5036420;28;20609;-78
2022/06/14 05:41:16;;;;;;;8.75;2.55;;;18.80;99.90;;;;;;5035364;28;20268;-78
2022/06/14 05:43:49;;;;;;;10.13;2.65;;;19.80;99.90;;;;;;5039291;28;20287;-78
2022/06/14 05:46:28;;;;;;;7.55;2.17;;;20.60;99.90;;;;;;5036189;28;20292;-78
2022/06/14 05:49:20;;;;;;;5.38;1.67;;;21.50;99.90;;;;;;5037438;28;20210;-77
2022/06/14 05:51:56;;;;;;;7.13;1.88;;;22.20;99.90;;;;;;5039297;28;20213;-77
2022/06/14 05:54:32;;;;;;;6.80;2.10;;;22.80;99.90;;;;;;5036847;28;20279;-78
2022/06/14 05:57:02;;;;;;;5.72;1.80;;;23.10;99.90;;;;;;5036581;28;20240;-78
2022/06/14 05:59:40;;;;;;;3.60;1.50;;;23.20;99.90;;;;;;5035945;28;20202;-77
2022/06/14 06:02:33;;;;;;;6.63;1.85;;;23.20;99.90;;;;;;5035346;28;20856;-74
2022/06/14 06:05:35;;;;;;;6.68;2.22;;;23.60;99.90;;;;;;5037616;28;20227;-76
2022/06/14 06:08:21;;;;;;;7.35;1.80;;;23.90;99.90;;;;;;5031017;28;20240;-79
2022/06/14 06:10:51;;;;;;;5.60;1.60;;;24.20;99.90;;;;;;5038863;28;20221;-77
2022/06/14 06:13:29;;;;;;;5.05;1.38;;;24.30;99.90;;;;;;5067024;28;20213;-77
2022/06/14 06:16:08;;;;;;;7.88;1.95;;;24.50;99.90;;;;;;5035894;28;20263;-79
2022/06/14 06:18:44;;;;;;;5.93;1.45;;;24.40;99.90;;;;;;5037076;28;20233;-76
2022/06/14 06:21:45;;;;;;;4.05;1.42;;;24.90;99.90;;;;;;5035321;28;20492;-77
2022/06/14 06:24:21;;;;;;;5.22;1.83;;;25.10;98.70;;;;;;5034353;28;20221;-78
2022/06/14 06:26:58;;;;;;;3.72;1.40;;;25.10;99.00;;;;;;5037522;28;20676;-78
2022/06/14 06:29:43;;;;;;;5.65;1.45;;;25.10;97.70;;;;;;5035816;28;20735;-76
2022/06/14 06:32:10;;;;;;;5.47;1.52;;;;;;;;;;5034569;28;20229;-77
2022/06/14 06:34:38;;;;;;;6.20;2.03;;;25.80;96.70;;;;;;5038734;28;20692;-79
2022/06/14 06:37:11;;;;;;;5.65;1.40;;;26.30;96.10;;;;;;5036747;28;20279;-78
2022/06/14 06:39:44;;;;;;;6.45;1.38;;;26.70;94.80;;;;;;5035881;28;20229;-78
2022/06/14 06:42:15;;;;;;;5.13;1.40;;;26.50;94.30;;;;;;5035737;28;20271;-78
2022/06/14 06:45:01;;;;;;;3.95;1.30;;;26.50;95.10;;;;;;5037259;28;20263;-78
2022/06/14 06:47:54;;;;;;;4.28;1.40;;;26.80;92.90;;;;;;5070614;28;20691;-77
2022/06/14 06:50:43;;;;;;;6.53;1.90;;;27.00;91.50;;;;;;5031067;28;20209;-78
2022/06/14 06:53:15;;;;;;;5.18;1.50;;;27.00;91.90;;;;;;5068217;28;20773;-78
2022/06/14 06:55:48;;;;;;;4.30;1.20;;;27.00;91.70;;;;;;5035901;28;20226;-78
2022/06/14 06:58:39;;;;;;;4.75;1.60;;;26.90;91.00;;;;;;5026863;28;20290;-78
2022/06/14 07:01:16;;;;;;;3.25;1.40;;;26.90;90.90;;;;;;5031265;28;20201;-78
2022/06/14 07:04:11;;;;;;;6.03;1.63;;;27.00;91.10;;;;;;5034411;28;20265;-77
2022/06/14 07:06:46;;;;;;;4.20;1.48;;;27.40;90.60;;;;;;5037806;28;20747;-79
2022/06/14 07:09:13;;;;;;;5.72;2.08;;;27.90;90.10;;;;;;5035317;28;20332;-78
2022/06/14 07:11:51;;;;;;;5.60;1.70;;;28.10;89.30;;;;;;5037584;28;20209;-78
2022/06/14 07:14:50;;;;;;;2.80;1.25;;;28.10;86.40;;;;;;5038317;28;20205;-77
2022/06/14 07:17:25;;;;;;;4.15;1.20;;;28.00;84.60;;;;;;5035991;28;20225;-77
2022/06/14 07:20:01;;;;;;;4.57;1.60;;;27.30;85.70;;;;;;5034564;28;21018;-77
2022/06/14 07:22:48;;;;;;;6.40;1.50;;;27.00;87.50;;;;;;5035338;28;20348;-79
2022/06/14 07:25:25;;;;;;;3.55;1.30;;;27.00;87.30;;;;;;5034639;28;20280;-78
2022/06/14 07:28:01;;;;;;;5.28;1.65;;;27.00;87.70;;;;;;5034650;28;20562;-77
2022/06/14 07:30:39;;;;;;;4.13;1.60;;;27.60;87.40;;;;;;5027257;28;20214;-75
2022/06/14 07:33:09;;;;;;;2.22;1.00;;;28.00;84.70;;;;;;5027949;28;20210;-76
2022/06/14 07:35:47;;;;;;;3.13;1.30;;;28.30;83.80;;;;;;5037973;28;20363;-78
2022/06/14 07:38:52;;;;;;;3.67;1.27;;;28.40;81.90;;;;;;5036155;28;20322;-77
2022/06/14 07:41:23;;;;;;;2.55;1.08;;;28.20;79.20;;;;;;5036742;28;20208;-78
2022/06/14 07:44:25;;;;;;;4.05;1.73;;;27.60;81.00;;;;;;5039934;28;20304;-80
2022/06/14 07:47:17;;;;;;;3.58;1.13;;;26.70;81.10;;;;;;5038221;28;20217;-79
2022/06/14 07:50:07;;;;;;;3.78;1.48;;;25.70;83.30;;;;;;5041675;28;20649;-80
2022/06/14 07:52:36;;;;;;;5.32;1.40;;;24.70;85.20;;;;;;5041231;28;20220;-80
2022/06/14 07:55:15;;;;;;;4.88;1.40;;;24.00;87.00;;;;;;5039330;28;20598;-79
2022/06/14 07:57:45;;;;;;;4.72;1.73;;;23.50;88.40;;;;;;5040511;28;20226;-79
2022/06/14 08:03:24;;;;;;;4.72;1.40;;;23.10;90.20;;;;;;5039282;28;20234;-78
2022/06/14 08:05:54;;;;;;;4.93;1.60;;;22.90;90.70;;;;;;5038673;28;20573;-79
2022/06/14 08:08:28;;;;;;;3.10;1.40;;;22.70;90.60;;;;;;5041216;28;20213;-79
2022/06/14 08:11:00;;;;;;;4.00;1.50;;;22.40;90.80;;;;;;5040490;28;20225;-78
2022/06/14 08:13:34;;;;;;;4.63;1.75;;;22.20;91.10;;;;;;5039689;28;20214;-76
2022/06/14 08:16:04;;;;;;;4.15;1.40;;;22.20;92.10;;;;;;5038865;28;20220;-79
2022/06/14 08:18:53;;;;;;;4.97;1.52;;;22.20;92.40;;;;;;5041255;28;20326;-78
2022/06/14 08:21:32;;;;;;;4.28;1.40;;;22.50;91.50;;;;;;5037481;28;20266;-79
2022/06/14 08:24:16;;;;;;;3.70;1.20;;;22.80;92.50;;;;;;5041449;28;20220;-79
2022/06/14 08:26:49;;;;;;;4.18;1.38;;;23.60;92.30;;;;;;5038167;28;20205;-80
2022/06/14 08:29:41;;;;;;;5.35;1.48;;;24.20;90.90;;;;;;5037962;28;20213;-81
2022/06/14 08:32:18;;;;;;;4.35;1.65;;;24.60;90.50;;;;;;5037713;28;20214;-77
2022/06/14 08:35:12;;;;;;;7.65;1.35;;;25.30;89.30;;;;;;5040961;28;20212;-78
2022/06/14 08:37:52;;;;;;;3.25;1.25;;;26.10;88.20;;;;;;5040133;28;20688;-78
2022/06/14 08:40:43;;;;;;;3.35;1.20;;;26.80;86.00;;;;;;5036898;28;20279;-78
2022/06/14 08:43:15;;;;;;;5.38;1.92;;;27.60;84.00;;;;;;5043660;28;20209;-77
2022/06/14 08:46:00;;;;;;;5.10;1.42;;;28.00;82.80;;;;;;5037371;28;20213;-78
2022/06/14 08:48:41;;;;;;;7.13;2.22;;;28.00;81.10;;;;;;5039269;28;20300;-78
2022/06/14 08:51:36;;;;;;;3.08;1.60;;;27.70;81.20;;;;;;5037585;28;20209;-78
2022/06/14 08:54:12;;;;;;;2.65;1.35;;;27.40;79.90;;;;;;5038247;28;20210;-78
2022/06/14 08:57:03;;;;;;;3.05;1.25;;;26.80;79.60;;;;;;5037288;28;20271;-76
2022/06/14 08:59:31;;;;;;;4.80;1.60;;;26.10;81.60;;;;;;5034894;28;21021;-78
2022/06/14 09:02:19;;;;;;;4.72;1.60;;;25.40;83.40;;;;;;5036917;28;20222;-78
2022/06/14 09:04:55;;;;;;;3.40;1.25;;;25.00;83.50;;;;;;5037878;28;20218;-78
2022/06/14 09:07:51;;;;;;;6.88;1.63;;;24.40;84.80;;;;;;5039321;28;20211;-78
2022/06/14 09:10:49;;;;;;;4.57;1.90;;;23.90;85.10;;;;;;5039775;28;20226;-79
2022/06/14 09:13:33;;;;;;;3.17;1.27;;;23.40;86.20;;;;;;5036889;28;20612;-78
2022/06/14 09:16:30;;;;;;;5.72;1.38;;;23.10;95.70;;;;;;5036689;28;20886;-81
2022/06/14 09:19:08;;;;;;;5.10;1.85;;;22.80;87.20;;;;;;5039660;28;20229;-79
2022/06/14 09:21:47;;;;;;;4.07;1.50;;;22.70;89.30;;;;;;5038048;28;20209;-77
2022/06/14 09:24:40;;;;;;;2.38;1.10;;;22.80;88.90;;;;;;5035965;28;20606;-78
2022/06/14 09:27:32;;;;;;;2.03;1.13;;;23.30;90.60;;;;;;5036634;28;20632;-77
2022/06/14 09:30:05;;;;;;;4.25;1.20;;;23.80;87.90;;;;;;5036929;28;20220;-78
2022/06/14 09:33:15;;;;;;;5.28;1.30;;;24.30;88.30;;;;;;5037088;28;20589;-79
2022/06/14 09:36:05;;;;;;;3.40;1.13;;;24.80;88.60;;;;;;5035350;28;20209;-78
2022/06/14 09:39:29;;;;;;;2.42;1.42;;;25.00;84.60;;;;;;5036234;28;20678;-79
2022/06/14 09:42:17;;;;;;;7.10;1.73;;;25.20;83.50;;;;;;5025251;28;20256;-78
2022/06/14 09:45:10;;;;;;;3.70;1.20;;;25.10;83.80;;;;;;5025139;28;20209;-75
2022/06/14 09:47:57;;;;;;;4.40;1.55;;;25.10;83.50;;;;;;5032962;28;20580;-77
2022/06/14 09:50:43;;;;;;;3.50;1.35;;;24.90;84.70;;;;;;5036706;28;20213;-77
2022/06/14 09:53:31;;;;;;;3.17;1.00;;;25.10;83.90;;;;;;5036104;28;20212;-77
2022/06/14 09:56:27;;;;;;;2.75;1.33;;;25.10;83.90;;;;;;5034365;28;20705;-79
2022/06/14 09:59:13;;;;;;;2.72;1.67;;;25.30;84.50;;;;;;5036558;28;20244;-79
2022/06/14 10:02:05;;;;;;;3.75;1.35;;;25.80;83.70;;;;;;5032349;28;20236;-77
2022/06/14 10:04:54;;;;;;;2.75;1.15;;;26.00;82.10;;;;;;5035706;28;20248;-78
2022/06/14 10:07:40;;;;;;;4.93;1.30;;;26.40;80.70;;;;;;5027748;28;20225;-78
2022/06/14 10:10:25;;;;;;;2.30;1.20;;;26.50;79.00;;;;;;5034215;28;20321;-78
2022/06/14 10:13:29;;;;;;;2.67;1.48;;;26.50;80.90;;;;;;5026923;28;20223;-79
2022/06/14 10:16:05;;;;;;;4.50;1.33;;;26.30;80.70;;;;;;5027129;28;20590;-78
2022/06/14 10:19:06;;;;;;;3.50;1.63;;;26.10;81.20;;;;;;5031013;28;20964;-78
2022/06/14 10:21:36;;;;;;;4.85;1.90;;;25.70;82.70;;;;;;5038817;28;20216;-80
2022/06/14 10:24:20;;;;;;;4.90;1.83;;;25.20;82.40;;;;;;5036299;28;20202;-79
2022/06/14 10:30:11;;;;;;;4.28;1.90;;;23.80;84.90;;;;;;5025800;28;20272;-79
2022/06/14 10:32:59;;;;;;;3.25;1.58;;;23.50;85.70;;;;;;5027462;28;20576;-78
2022/06/14 10:35:50;;;;;;;2.88;1.35;;;23.60;85.70;;;;;;5036329;28;20305;-78
2022/06/14 10:38:34;;;;;;;4.80;1.50;;;23.60;85.40;;;;;;5035992;28;20704;-77
2022/06/14 10:41:19;;;;;;;3.13;1.40;;;23.70;85.30;;;;;;5034441;28;20217;-78
2022/06/14 10:43:55;;;;;;;5.32;1.25;;;23.90;85.70;;;;;;5038748;28;20746;-78
2022/06/14 10:46:33;;;;;;;3.60;1.40;;;24.30;84.10;;;;;;5036731;28;20213;-79
2022/06/14 10:49:29;;;;;;;3.78;1.38;;;24.60;81.50;;;;;;5035068;28;20201;-78
2022/06/14 10:51:59;;;;;;;2.33;1.45;;;25.00;81.90;;;;;;5035308;28;20294;-78
2022/06/14 10:55:04;;;;;;;3.58;1.30;;;25.20;83.20;;;;;;5037185;28;20278;-79
2022/06/14 10:57:54;;;;;;;4.20;1.67;;;25.40;81.40;;;;;;5030363;28;20646;-79
2022/06/14 11:00:41;;;;;;;3.17;1.63;;;25.40;81.90;;;;;;5038146;28;20746;-78
2022/06/14 11:03:45;;;;;;;2.63;1.65;;;25.10;81.10;;;;;;5034552;28;20236;-77
2022/06/14 11:06:35;;;;;;;5.13;1.70;;;24.90;82.20;;;;;;5035294;28;20292;-77
2022/06/14 11:09:10;;;;;;;4.20;1.73;;;24.80;82.30;;;;;;5030339;28;20216;-79
2022/06/14 11:12:10;;;;;;;3.65;1.35;;;24.60;82.10;;;;;;5036789;28;20212;-78
2022/06/14 11:14:44;;;;;;;2.72;1.23;;;24.50;84.50;;;;;;5041962;28;20292;-78
2022/06/14 11:17:32;;;;;;;3.10;1.33;;;24.40;84.40;;;;;;5040255;28;20217;-79
2022/06/14 11:20:23;;;;;;;2.40;1.55;;;24.50;83.40;;;;;;5039572;28;20265;-77
2022/06/14 11:23:18;;;;;;;3.95;1.58;;;24.40;83.60;;;;;;5041970;28;20209;-78
2022/06/14 11:25:57;;;;;;;6.32;1.55;;;24.50;83.60;;;;;;5040318;28;20221;-77
2022/06/14 11:28:29;;;;;;;4.55;1.75;;;24.40;85.00;;;;;;5041841;28;20236;-78
2022/06/14 11:31:33;;;;;;;3.42;1.45;;;24.50;84.30;;;;;;5039785;28;20237;-77
2022/06/14 11:34:06;;;;;;;3.20;1.52;;;24.60;83.80;;;;;;5041514;28;20608;-78
2022/06/14 11:37:07;;;;;;;3.97;1.60;;;24.80;83.30;;;;;;5039063;28;20646;-79
2022/06/14 11:39:59;;;;;;;3.47;1.60;;;25.00;81.00;;;;;;5038722;28;20352;-78
2022/06/14 11:42:36;;;;;;;5.30;1.50;;;25.20;82.70;;;;;;5040888;28;20205;-78
2022/06/14 11:45:41;;;;;;;4.90;1.60;;;25.40;82.90;;;;;;5054399;28;20644;-79
2022/06/14 11:48:34;;;;;;;4.97;1.90;;;25.40;80.60;;;;;;5032572;28;20213;-78
2022/06/14 11:51:08;;;;;;;2.72;1.60;;;25.00;79.50;;;;;;5041399;28;20213;-79
2022/06/14 11:53:58;;;;;;;2.95;1.30;;;24.80;81.30;;;;;;5038196;28;20218;-78
2022/06/14 11:56:39;;;;;;;5.43;1.80;;;24.80;81.70;;;;;;5038271;28;20678;-78
2022/06/14 11:59:24;;;;;;;3.25;1.60;;;24.90;84.60;;;;;;5038047;28;20587;-78
2022/06/14 12:02:19;;;;;;;6.20;1.80;;;24.80;82.40;;;;;;5038571;28;20225;-77
2022/06/14 12:04:46;;;;;;;4.32;1.30;;;24.70;83.40;;;;;;5040794;28;20221;-78
2022/06/14 12:07:24;;;;;;;3.97;1.88;;;24.70;83.20;;;;;;5037645;28;20632;-77
2022/06/14 12:10:22;;;;;;;2.95;1.30;;;24.90;82.30;;;;;;5038736;28;20304;-81
2022/06/14 12:13:00;;;;;;;5.22;1.70;;;25.00;83.00;;;;;;5040614;28;20213;-79
2022/06/14 12:15:41;;;;;;;5.00;1.40;;;25.10;85.60;;;;;;5039499;28;20205;-78
2022/06/14 12:18:12;;;;;;;3.95;1.85;;;25.00;84.00;;;;;;5037773;28;20206;-76
2022/06/14 12:20:49;;;;;;;2.65;1.13;;;25.10;83.10;;;;;;5040233;28;20220;-78
2022/06/14 12:23:33;;;;;;;2.40;1.13;;;25.10;83.10;;;;;;5039648;28;20669;-79
2022/06/14 12:29:02;;;;;;;2.22;1.40;;;25.10;80.90;;;;;;5039924;28;20209;-78
2022/06/14 12:31:46;;;;;;;3.75;1.58;;;25.10;80.50;;;;;;5053196;28;20218;-77
2022/06/14 12:34:38;;;;;;;6.07;1.30;;;25.20;80.30;;;;;;5039012;28;20197;-78
2022/06/14 12:37:10;;;;;;;4.68;1.50;;;25.20;79.40;;;;;;5037023;28;20209;-78
2022/06/14 12:39:52;;;;;;;3.03;1.38;;;24.90;79.70;;;;;;5039004;28;20278;-78
2022/06/14 12:42:27;;;;;;;2.53;1.30;;;24.70;81.30;;;;;;5039286;28;20209;-76
2022/06/14 12:45:02;;;;;;;5.65;1.35;;;24.80;82.20;;;;;;5038748;28;20692;-78
2022/06/14 12:47:54;;;;;;;5.13;1.35;;;24.70;81.70;;;;;;5037233;28;20337;-80
2022/06/14 12:50:33;;;;;;;4.18;1.30;;;24.50;83.80;;;;;;5040327;28;20309;-77
2022/06/14 12:53:10;;;;;;;4.50;1.40;;;24.60;84.20;;;;;;5037333;28;20573;-78
2022/06/14 12:55:43;;;;;;;5.05;1.52;;;24.70;84.70;;;;;;5040419;28;20229;-78
2022/06/14 12:58:35;;;;;;;4.63;1.73;;;24.90;84.80;;;;;;5038041;28;20228;-78
2022/06/14 13:01:08;;;;;;;3.25;1.40;;;25.10;82.30;;;;;;5040815;28;20212;-81
2022/06/14 13:03:50;;;;;;;3.15;1.08;;;25.10;81.90;;;;;;5036448;28;20236;-81
2022/06/14 13:06:33;;;;;;;2.90;1.30;;;25.10;81.40;;;;;;5038453;28;20240;-79
2022/06/14 13:09:30;;;;;;;3.90;1.30;;;25.10;81.10;;;;;;5037027;28;20210;-79
2022/06/14 13:12:28;;;;;;;4.20;1.70;;;25.10;79.80;;;;;;5038210;28;20217;-78
2022/06/14 13:15:30;;;;;;;3.25;1.13;;;25.20;80.70;;;;;;5065115;28;20251;-81
2022/06/14 13:18:27;;;;;;;3.42;1.65;;;25.10;81.30;;;;;;5037335;28;20210;-78
2022/06/14 13:21:08;;;;;;;2.95;1.40;;;25.10;79.60;;;;;;5037256;28;20221;-79
2022/06/14 13:24:17;;;;;;;6.38;1.70;;;24.90;80.20;;;;;;5036726;28;20697;-81
2022/06/14 13:27:07;;;;;;;4.25;1.55;;;25.10;80.60;;;;;;5039436;28;20212;-80
2022/06/14 13:29:55;;;;;;;5.00;1.85;;;25.00;79.60;;;;;;5038850;28;20212;-82
2022/06/14 13:32:29;;;;;;;3.60;1.55;;;25.00;80.20;;;;;;5038991;28;20222;-78
2022/06/14 13:35:34;;;;;;;2.75;1.40;;;24.90;79.70;;;;;;5039120;28;20208;-80
2022/06/14 13:38:27;;;;;;;5.05;1.80;;;24.80;81.00;;;;;;5036881;28;20577;-81
2022/06/14 13:41:26;;;;;;;2.45;1.20;;;25.00;81.00;;;;;;5035558;28;20226;-77
2022/06/14 13:44:08;;;;;;;3.72;1.40;;;25.10;80.80;;;;;;5039274;28;20304;-79
2022/06/14 13:46:58;;;;;;;2.72;1.48;;;25.10;81.30;;;;;;5039385;28;20221;-80
2022/06/14 13:49:33;;;;;;;3.65;1.48;;;25.20;80.80;;;;;;5036036;28;20296;-80
2022/06/14 13:52:19;;;;;;;5.10;1.20;;;25.00;80.50;;;;;;5036007;28;20213;-79
2022/06/14 13:55:17;;;;;;;3.53;1.40;;;25.00;82.70;;;;;;5034771;28;20325;-80
2022/06/14 13:57:52;;;;;;;2.95;1.15;;;25.00;81.10;;;;;;5051854;28;20214;-78
2022/06/14 14:00:25;;;;;;;3.65;1.50;;;25.10;81.70;;;;;;5036859;28;20308;-78
2022/06/14 14:03:15;;;;;;;4.43;1.60;;;25.30;81.50;;;;;;5035095;28;20689;-78
2022/06/14 14:06:01;;;;;;;3.67;1.65;;;25.50;81.10;;;;;;5035210;28;20213;-79
2022/06/14 14:08:43;;;;;;;2.97;1.38;;;25.50;80.50;;;;;;5039637;28;20225;-79
2022/06/14 14:11:35;;;;;;;3.80;1.20;;;25.40;80.70;;;;;;5037411;28;20229;-79
2022/06/14 14:14:23;;;;;;;4.78;1.98;;;25.40;79.70;;;;;;5037864;28;20241;-80
2022/06/14 14:17:07;;;;;;;3.03;1.42;;;25.40;77.90;;;;;;5035753;28;20261;-80